sensor_id;sensor_type;location;lat;lon;timestamp;temperature;humidity
19437;DHT22;9854;50.968;4.168;2023-01-19T00:00:50;2.70;99.90
19437;DHT22;9854;50.968;4.168;2023-01-19T00:03:16;2.60;99.90
19437;DHT22;9854;50.968;4.168;2023-01-19T00:05:42;2.70;99.90
19437;DHT22;9854;50.968;4.168;2023-01-19T00:08:08;2.80;99.90
19437;DHT22;9854;50.968;4.168;2023-01-19T00:10:45;2.70;99.90
19437;DHT22;9854;50.968;4.168;2023-01-19T00:13:11;2.70;99.90
19437;DHT22;9854;50.968;4.168;2023-01-19T00:15:37;2.70;99.90
19437;DHT22;9854;50.968;4.168;2023-01-19T00:18:04;2.70;99.90
19437;DHT22;9854;50.968;4.168;2023-01-19T00:20:30;2.60;99.90
19437;DHT22;9854;50.968;4.168;2023-01-19T00:23:00;2.50;99.90
19437;DHT22;9854;50.968;4.168;2023-01-19T00:25:26;2.60;99.90
19437;DHT22;9854;50.968;4.168;2023-01-19T00:27:52;2.50;99.90
19437;DHT22;9854;50.968;4.168;2023-01-19T00:30:18;2.50;99.90
19437;DHT22;9854;50.968;4.168;2023-01-19T00:32:44;2.50;99.90
19437;DHT22;9854;50.968;4.168;2023-01-19T00:35:09;2.60;99.90
19437;DHT22;9854;50.968;4.168;2023-01-19T00:37:35;2.60;99.90
19437;DHT22;9854;50.968;4.168;2023-01-19T00:40:01;2.60;99.90
19437;DHT22;9854;50.968;4.168;2023-01-19T00:42:26;2.40;99.90
19437;DHT22;9854;50.968;4.168;2023-01-19T00:45:15;2.50;99.90
19437;DHT22;9854;50.968;4.168;2023-01-19T00:47:41;2.50;99.90
19437;DHT22;9854;50.968;4.168;2023-01-19T00:50:08;2.40;99.90
19437;DHT22;9854;50.968;4.168;2023-01-19T00:52:37;2.40;99.90
19437;DHT22;9854;50.968;4.168;2023-01-19T00:55:03;2.30;99.90
19437;DHT22;9854;50.968;4.168;2023-01-19T00:57:29;2.30;99.90
19437;DHT22;9854;50.968;4.168;2023-01-19T00:59:55;2.30;99.90
19437;DHT22;9854;50.968;4.168;2023-01-19T01:02:20;2.30;99.90
19437;DHT22;9854;50.968;4.168;2023-01-19T01:04:46;2.20;99.90
19437;DHT22;9854;50.968;4.168;2023-01-19T01:07:12;2.20;99.90
19437;DHT22;9854;50.968;4.168;2023-01-19T01:09:38;2.20;99.90
19437;DHT22;9854;50.968;4.168;2023-01-19T01:12:03;2.20;99.90
19437;DHT22;9854;50.968;4.168;2023-01-19T01:14:29;2.30;99.90
19437;DHT22;9854;50.968;4.168;2023-01-19T01:16:55;2.20;99.90
19437;DHT22;9854;50.968;4.168;2023-01-19T01:19:20;2.20;99.90
19437;DHT22;9854;50.968;4.168;2023-01-19T01:21:46;2.20;99.90
19437;DHT22;9854;50.968;4.168;2023-01-19T01:24:12;2.20;99.90
19437;DHT22;9854;50.968;4.168;2023-01-19T01:26:37;2.30;99.90
19437;DHT22;9854;50.968;4.168;2023-01-19T01:29:06;2.10;99.90
19437;DHT22;9854;50.968;4.168;2023-01-19T01:31:32;2.00;99.90
19437;DHT22;9854;50.968;4.168;2023-01-19T01:33:58;2.20;99.90
19437;DHT22;9854;50.968;4.168;2023-01-19T01:36:24;2.30;99.90
19437;DHT22;9854;50.968;4.168;2023-01-19T01:38:53;2.30;99.90
19437;DHT22;9854;50.968;4.168;2023-01-19T01:41:19;2.00;99.90
19437;DHT22;9854;50.968;4.168;2023-01-19T01:43:53;2.10;99.90
19437;DHT22;9854;50.968;4.168;2023-01-19T01:46:23;1.90;99.90
19437;DHT22;9854;50.968;4.168;2023-01-19T01:49:07;1.90;99.90
19437;DHT22;9854;50.968;4.168;2023-01-19T01:52:04;2.00;99.90
19437;DHT22;9854;50.968;4.168;2023-01-19T01:54:31;2.10;99.90
19437;DHT22;9854;50.968;4.168;2023-01-19T01:57:01;2.10;99.90
19437;DHT22;9854;50.968;4.168;2023-01-19T01:59:31;2.10;99.90
19437;DHT22;9854;50.968;4.168;2023-01-19T02:02:20;2.00;99.90
19437;DHT22;9854;50.968;4.168;2023-01-19T02:05:10;2.00;99.90
19437;DHT22;9854;50.968;4.168;2023-01-19T02:07:53;2.00;99.90
19437;DHT22;9854;50.968;4.168;2023-01-19T02:10:40;2.00;99.90
19437;DHT22;9854;50.968;4.168;2023-01-19T02:13:26;2.10;99.90
19437;DHT22;9854;50.968;4.168;2023-01-19T02:15:54;2.10;99.90
19437;DHT22;9854;50.968;4.168;2023-01-19T02:18:25;2.10;99.90
19437;DHT22;9854;50.968;4.168;2023-01-19T02:26:10;2.10;99.90
19437;DHT22;9854;50.968;4.168;2023-01-19T02:28:42;2.10;99.90
19437;DHT22;9854;50.968;4.168;2023-01-19T02:31:09;2.10;99.90
19437;DHT22;9854;50.968;4.168;2023-01-19T02:33:36;2.00;99.90
19437;DHT22;9854;50.968;4.168;2023-01-19T02:36:02;2.10;99.90
19437;DHT22;9854;50.968;4.168;2023-01-19T02:38:29;2.10;99.90
19437;DHT22;9854;50.968;4.168;2023-01-19T02:40:59;2.00;99.90
19437;DHT22;9854;50.968;4.168;2023-01-19T02:43:26;2.10;99.90
19437;DHT22;9854;50.968;4.168;2023-01-19T02:45:53;2.10;99.90
19437;DHT22;9854;50.968;4.168;2023-01-19T02:48:19;2.00;99.90
19437;DHT22;9854;50.968;4.168;2023-01-19T02:50:46;2.00;99.90
19437;DHT22;9854;50.968;4.168;2023-01-19T02:58:46;2.10;99.90
19437;DHT22;9854;50.968;4.168;2023-01-19T03:01:37;2.10;99.90
19437;DHT22;9854;50.968;4.168;2023-01-19T03:04:26;2.30;99.90
19437;DHT22;9854;50.968;4.168;2023-01-19T03:07:14;2.30;99.90
19437;DHT22;9854;50.968;4.168;2023-01-19T03:10:03;2.30;99.90
19437;DHT22;9854;50.968;4.168;2023-01-19T03:12:45;2.40;99.90
19437;DHT22;9854;50.968;4.168;2023-01-19T03:15:19;2.40;99.90
19437;DHT22;9854;50.968;4.168;2023-01-19T03:17:48;2.30;99.90
19437;DHT22;9854;50.968;4.168;2023-01-19T03:20:18;2.30;99.90
19437;DHT22;9854;50.968;4.168;2023-01-19T03:22:44;2.30;99.90
19437;DHT22;9854;50.968;4.168;2023-01-19T03:25:12;2.40;99.90
19437;DHT22;9854;50.968;4.168;2023-01-19T03:27:41;2.60;99.90
19437;DHT22;9854;50.968;4.168;2023-01-19T03:30:11;2.80;99.90
19437;DHT22;9854;50.968;4.168;2023-01-19T03:32:46;2.90;99.90
19437;DHT22;9854;50.968;4.168;2023-01-19T03:35:14;3.00;99.90
19437;DHT22;9854;50.968;4.168;2023-01-19T03:37:43;3.30;99.90
19437;DHT22;9854;50.968;4.168;2023-01-19T03:40:10;3.30;99.90
19437;DHT22;9854;50.968;4.168;2023-01-19T03:42:36;3.40;99.90
19437;DHT22;9854;50.968;4.168;2023-01-19T03:45:04;3.30;99.90
19437;DHT22;9854;50.968;4.168;2023-01-19T03:47:30;3.40;99.90
19437;DHT22;9854;50.968;4.168;2023-01-19T03:49:57;3.20;99.90
19437;DHT22;9854;50.968;4.168;2023-01-19T03:52:30;3.20;99.90
19437;DHT22;9854;50.968;4.168;2023-01-19T03:55:03;3.20;99.90
19437;DHT22;9854;50.968;4.168;2023-01-19T03:57:30;2.90;99.90
19437;DHT22;9854;50.968;4.168;2023-01-19T03:59:56;2.80;99.90
19437;DHT22;9854;50.968;4.168;2023-01-19T04:02:22;2.90;99.90
19437;DHT22;9854;50.968;4.168;2023-01-19T04:04:48;2.90;99.90
19437;DHT22;9854;50.968;4.168;2023-01-19T04:07:14;2.90;99.90
19437;DHT22;9854;50.968;4.168;2023-01-19T04:09:40;2.80;99.90
19437;DHT22;9854;50.968;4.168;2023-01-19T04:12:05;2.80;99.90
19437;DHT22;9854;50.968;4.168;2023-01-19T04:14:31;2.60;99.90
19437;DHT22;9854;50.968;4.168;2023-01-19T04:16:57;2.60;99.90
19437;DHT22;9854;50.968;4.168;2023-01-19T04:19:23;2.50;99.90
19437;DHT22;9854;50.968;4.168;2023-01-19T04:21:49;2.60;99.90
19437;DHT22;9854;50.968;4.168;2023-01-19T04:24:16;2.60;99.90
19437;DHT22;9854;50.968;4.168;2023-01-19T04:26:42;2.60;99.90
19437;DHT22;9854;50.968;4.168;2023-01-19T04:29:08;2.60;99.90
19437;DHT22;9854;50.968;4.168;2023-01-19T04:31:34;2.50;99.90
19437;DHT22;9854;50.968;4.168;2023-01-19T04:34:01;2.60;99.90
19437;DHT22;9854;50.968;4.168;2023-01-19T04:36:27;2.40;99.90
19437;DHT22;9854;50.968;4.168;2023-01-19T04:38:53;2.30;99.90
19437;DHT22;9854;50.968;4.168;2023-01-19T04:41:19;2.40;99.90
19437;DHT22;9854;50.968;4.168;2023-01-19T04:43:44;2.30;99.90
19437;DHT22;9854;50.968;4.168;2023-01-19T04:46:12;2.40;99.90
19437;DHT22;9854;50.968;4.168;2023-01-19T04:48:38;2.40;99.90
19437;DHT22;9854;50.968;4.168;2023-01-19T04:51:04;2.30;99.90
19437;DHT22;9854;50.968;4.168;2023-01-19T04:53:29;2.20;99.90
19437;DHT22;9854;50.968;4.168;2023-01-19T04:55:55;2.20;99.90
19437;DHT22;9854;50.968;4.168;2023-01-19T04:58:21;2.20;99.90
19437;DHT22;9854;50.968;4.168;2023-01-19T05:00:47;2.30;99.90
19437;DHT22;9854;50.968;4.168;2023-01-19T05:03:13;2.20;99.90
19437;DHT22;9854;50.968;4.168;2023-01-19T05:05:39;2.30;99.90
19437;DHT22;9854;50.968;4.168;2023-01-19T05:08:04;2.20;99.90
19437;DHT22;9854;50.968;4.168;2023-01-19T05:10:30;2.20;99.90
19437;DHT22;9854;50.968;4.168;2023-01-19T05:12:56;2.30;99.90
19437;DHT22;9854;50.968;4.168;2023-01-19T05:15:22;2.10;99.90
19437;DHT22;9854;50.968;4.168;2023-01-19T05:17:48;2.00;99.90
19437;DHT22;9854;50.968;4.168;2023-01-19T05:20:13;2.00;99.90
19437;DHT22;9854;50.968;4.168;2023-01-19T05:22:39;2.00;99.90
19437;DHT22;9854;50.968;4.168;2023-01-19T05:25:06;1.90;99.90
19437;DHT22;9854;50.968;4.168;2023-01-19T05:27:33;1.90;99.90
19437;DHT22;9854;50.968;4.168;2023-01-19T05:29:59;1.90;99.90
19437;DHT22;9854;50.968;4.168;2023-01-19T05:32:24;1.90;99.90
19437;DHT22;9854;50.968;4.168;2023-01-19T05:34:50;1.80;99.90
19437;DHT22;9854;50.968;4.168;2023-01-19T05:37:16;1.80;99.90
19437;DHT22;9854;50.968;4.168;2023-01-19T05:39:41;1.70;99.90
19437;DHT22;9854;50.968;4.168;2023-01-19T05:42:07;1.60;99.90
19437;DHT22;9854;50.968;4.168;2023-01-19T05:44:33;1.60;99.90
19437;DHT22;9854;50.968;4.168;2023-01-19T05:46:58;1.60;99.90
19437;DHT22;9854;50.968;4.168;2023-01-19T05:49:24;1.50;99.90
19437;DHT22;9854;50.968;4.168;2023-01-19T05:51:49;1.60;99.90
19437;DHT22;9854;50.968;4.168;2023-01-19T05:54:15;1.70;99.90
19437;DHT22;9854;50.968;4.168;2023-01-19T05:56:41;1.60;99.90
19437;DHT22;9854;50.968;4.168;2023-01-19T05:59:08;1.60;99.90
19437;DHT22;9854;50.968;4.168;2023-01-19T06:01:33;1.60;99.90
19437;DHT22;9854;50.968;4.168;2023-01-19T06:04:01;1.60;99.90
19437;DHT22;9854;50.968;4.168;2023-01-19T06:06:27;1.70;99.90
19437;DHT22;9854;50.968;4.168;2023-01-19T06:08:52;1.60;99.90
19437;DHT22;9854;50.968;4.168;2023-01-19T06:11:18;1.50;99.90
19437;DHT22;9854;50.968;4.168;2023-01-19T06:13:44;1.50;99.90
19437;DHT22;9854;50.968;4.168;2023-01-19T06:16:11;1.60;99.90
19437;DHT22;9854;50.968;4.168;2023-01-19T06:18:36;1.70;99.90
19437;DHT22;9854;50.968;4.168;2023-01-19T06:21:04;1.70;99.90
19437;DHT22;9854;50.968;4.168;2023-01-19T06:23:31;1.60;99.90
19437;DHT22;9854;50.968;4.168;2023-01-19T06:25:58;1.70;99.90
19437;DHT22;9854;50.968;4.168;2023-01-19T06:28:23;1.70;99.90
19437;DHT22;9854;50.968;4.168;2023-01-19T06:30:50;1.80;99.90
19437;DHT22;9854;50.968;4.168;2023-01-19T06:33:17;1.90;99.90
19437;DHT22;9854;50.968;4.168;2023-01-19T06:35:43;1.90;99.90
19437;DHT22;9854;50.968;4.168;2023-01-19T06:38:09;1.90;99.90
19437;DHT22;9854;50.968;4.168;2023-01-19T06:40:35;1.80;99.90
19437;DHT22;9854;50.968;4.168;2023-01-19T06:43:01;1.90;99.90
19437;DHT22;9854;50.968;4.168;2023-01-19T06:45:26;1.90;99.90
19437;DHT22;9854;50.968;4.168;2023-01-19T06:47:52;1.90;99.90
19437;DHT22;9854;50.968;4.168;2023-01-19T06:50:18;2.00;99.90
19437;DHT22;9854;50.968;4.168;2023-01-19T06:52:44;2.00;99.90
19437;DHT22;9854;50.968;4.168;2023-01-19T06:55:10;2.00;99.90
19437;DHT22;9854;50.968;4.168;2023-01-19T06:57:36;2.00;99.90
19437;DHT22;9854;50.968;4.168;2023-01-19T07:00:04;1.90;99.90
19437;DHT22;9854;50.968;4.168;2023-01-19T07:02:51;2.10;99.90
19437;DHT22;9854;50.968;4.168;2023-01-19T07:05:17;2.20;99.90
19437;DHT22;9854;50.968;4.168;2023-01-19T07:07:43;2.30;99.90
19437;DHT22;9854;50.968;4.168;2023-01-19T07:10:11;2.20;99.90
19437;DHT22;9854;50.968;4.168;2023-01-19T07:12:39;2.20;99.90
19437;DHT22;9854;50.968;4.168;2023-01-19T07:15:06;2.00;99.90
19437;DHT22;9854;50.968;4.168;2023-01-19T07:17:32;2.20;99.90
19437;DHT22;9854;50.968;4.168;2023-01-19T07:19:57;2.20;99.90
19437;DHT22;9854;50.968;4.168;2023-01-19T07:22:23;2.10;99.90
19437;DHT22;9854;50.968;4.168;2023-01-19T07:24:49;2.10;99.90
19437;DHT22;9854;50.968;4.168;2023-01-19T07:27:14;1.90;99.90
19437;DHT22;9854;50.968;4.168;2023-01-19T07:29:41;1.90;99.90
19437;DHT22;9854;50.968;4.168;2023-01-19T07:32:06;1.80;99.90
19437;DHT22;9854;50.968;4.168;2023-01-19T07:34:32;1.70;99.90
19437;DHT22;9854;50.968;4.168;2023-01-19T07:36:58;1.70;99.90
19437;DHT22;9854;50.968;4.168;2023-01-19T07:39:24;1.70;99.90
19437;DHT22;9854;50.968;4.168;2023-01-19T07:41:50;1.70;99.90
19437;DHT22;9854;50.968;4.168;2023-01-19T07:44:15;1.80;99.90
19437;DHT22;9854;50.968;4.168;2023-01-19T07:46:41;1.80;99.90
19437;DHT22;9854;50.968;4.168;2023-01-19T07:49:07;1.70;99.90
19437;DHT22;9854;50.968;4.168;2023-01-19T07:51:33;1.80;99.90
19437;DHT22;9854;50.968;4.168;2023-01-19T07:53:59;1.70;99.90
19437;DHT22;9854;50.968;4.168;2023-01-19T07:56:26;1.70;99.90
19437;DHT22;9854;50.968;4.168;2023-01-19T07:58:54;1.70;99.90
19437;DHT22;9854;50.968;4.168;2023-01-19T08:01:20;1.80;99.90
19437;DHT22;9854;50.968;4.168;2023-01-19T08:03:47;1.80;99.90
19437;DHT22;9854;50.968;4.168;2023-01-19T08:06:21;1.90;99.90
19437;DHT22;9854;50.968;4.168;2023-01-19T08:08:47;1.80;99.90
19437;DHT22;9854;50.968;4.168;2023-01-19T08:11:13;1.90;99.90
19437;DHT22;9854;50.968;4.168;2023-01-19T08:13:39;1.90;99.90
19437;DHT22;9854;50.968;4.168;2023-01-19T08:16:05;1.90;99.90
19437;DHT22;9854;50.968;4.168;2023-01-19T08:18:31;1.90;99.90
19437;DHT22;9854;50.968;4.168;2023-01-19T08:21:00;1.80;99.90
19437;DHT22;9854;50.968;4.168;2023-01-19T08:23:26;1.90;99.90
19437;DHT22;9854;50.968;4.168;2023-01-19T08:25:53;2.00;99.90
19437;DHT22;9854;50.968;4.168;2023-01-19T08:28:19;2.10;99.90
19437;DHT22;9854;50.968;4.168;2023-01-19T08:30:45;2.20;99.90
19437;DHT22;9854;50.968;4.168;2023-01-19T08:33:19;2.20;99.90
19437;DHT22;9854;50.968;4.168;2023-01-19T08:35:47;2.30;99.90
19437;DHT22;9854;50.968;4.168;2023-01-19T08:38:14;2.40;99.90
19437;DHT22;9854;50.968;4.168;2023-01-19T08:40:40;2.50;99.90
19437;DHT22;9854;50.968;4.168;2023-01-19T08:43:16;2.50;99.90
19437;DHT22;9854;50.968;4.168;2023-01-19T08:45:49;2.60;99.90
19437;DHT22;9854;50.968;4.168;2023-01-19T08:48:17;2.50;99.90
19437;DHT22;9854;50.968;4.168;2023-01-19T08:50:45;2.50;99.90
19437;DHT22;9854;50.968;4.168;2023-01-19T08:53:11;2.60;99.90
19437;DHT22;9854;50.968;4.168;2023-01-19T08:55:37;2.50;99.90
19437;DHT22;9854;50.968;4.168;2023-01-19T08:58:04;2.40;99.90
19437;DHT22;9854;50.968;4.168;2023-01-19T09:00:31;2.20;99.90
19437;DHT22;9854;50.968;4.168;2023-01-19T09:02:58;2.40;99.90
19437;DHT22;9854;50.968;4.168;2023-01-19T09:05:26;2.50;99.90
19437;DHT22;9854;50.968;4.168;2023-01-19T09:07:51;2.50;99.90
19437;DHT22;9854;50.968;4.168;2023-01-19T09:10:17;2.50;99.90
19437;DHT22;9854;50.968;4.168;2023-01-19T09:12:43;2.50;99.90
19437;DHT22;9854;50.968;4.168;2023-01-19T09:15:11;2.60;99.90
19437;DHT22;9854;50.968;4.168;2023-01-19T09:17:38;2.50;99.90
19437;DHT22;9854;50.968;4.168;2023-01-19T09:20:05;2.40;99.90
19437;DHT22;9854;50.968;4.168;2023-01-19T09:22:31;2.20;99.90
19437;DHT22;9854;50.968;4.168;2023-01-19T09:24:57;2.20;99.90
19437;DHT22;9854;50.968;4.168;2023-01-19T09:27:23;2.10;99.90
19437;DHT22;9854;50.968;4.168;2023-01-19T09:29:49;2.20;99.90
19437;DHT22;9854;50.968;4.168;2023-01-19T09:32:19;2.40;99.90
19437;DHT22;9854;50.968;4.168;2023-01-19T09:34:45;2.60;99.90
19437;DHT22;9854;50.968;4.168;2023-01-19T09:37:10;2.60;99.90
19437;DHT22;9854;50.968;4.168;2023-01-19T09:39:36;2.40;99.90
19437;DHT22;9854;50.968;4.168;2023-01-19T09:44:42;2.60;99.90
19437;DHT22;9854;50.968;4.168;2023-01-19T09:47:15;2.70;99.90
19437;DHT22;9854;50.968;4.168;2023-01-19T09:49:44;2.60;99.90
19437;DHT22;9854;50.968;4.168;2023-01-19T09:52:13;2.60;99.90
19437;DHT22;9854;50.968;4.168;2023-01-19T09:54:52;2.80;99.90
19437;DHT22;9854;50.968;4.168;2023-01-19T09:57:20;2.60;99.90
19437;DHT22;9854;50.968;4.168;2023-01-19T09:59:46;2.60;99.90
19437;DHT22;9854;50.968;4.168;2023-01-19T10:02:44;2.80;99.90
19437;DHT22;9854;50.968;4.168;2023-01-19T10:08:07;2.60;99.90
19437;DHT22;9854;50.968;4.168;2023-01-19T10:10:36;2.90;99.90
19437;DHT22;9854;50.968;4.168;2023-01-19T10:13:20;3.00;99.90
19437;DHT22;9854;50.968;4.168;2023-01-19T10:18:45;3.10;99.90
19437;DHT22;9854;50.968;4.168;2023-01-19T10:21:32;3.10;99.90
19437;DHT22;9854;50.968;4.168;2023-01-19T10:24:19;3.10;99.90
19437;DHT22;9854;50.968;4.168;2023-01-19T10:27:09;3.10;99.90
19437;DHT22;9854;50.968;4.168;2023-01-19T10:29:39;3.10;99.90
19437;DHT22;9854;50.968;4.168;2023-01-19T10:34:44;3.00;99.90
19437;DHT22;9854;50.968;4.168;2023-01-19T10:39:44;3.10;99.90
19437;DHT22;9854;50.968;4.168;2023-01-19T10:42:14;3.00;99.90
19437;DHT22;9854;50.968;4.168;2023-01-19T10:44:40;3.10;99.90
19437;DHT22;9854;50.968;4.168;2023-01-19T10:47:16;3.10;99.90
19437;DHT22;9854;50.968;4.168;2023-01-19T10:49:42;3.10;99.90
19437;DHT22;9854;50.968;4.168;2023-01-19T10:52:34;3.00;99.90
19437;DHT22;9854;50.968;4.168;2023-01-19T10:55:06;2.90;99.90
19437;DHT22;9854;50.968;4.168;2023-01-19T10:57:37;3.00;99.90
19437;DHT22;9854;50.968;4.168;2023-01-19T11:00:41;3.30;99.90
19437;DHT22;9854;50.968;4.168;2023-01-19T11:03:29;3.20;99.90
19437;DHT22;9854;50.968;4.168;2023-01-19T11:08:45;3.10;99.90
19437;DHT22;9854;50.968;4.168;2023-01-19T11:11:11;3.20;99.90
19437;DHT22;9854;50.968;4.168;2023-01-19T11:13:38;3.20;99.90
19437;DHT22;9854;50.968;4.168;2023-01-19T11:16:05;3.20;99.90
19437;DHT22;9854;50.968;4.168;2023-01-19T11:18:34;3.30;99.90
19437;DHT22;9854;50.968;4.168;2023-01-19T11:21:11;3.20;99.90
19437;DHT22;9854;50.968;4.168;2023-01-19T11:23:40;3.50;99.90
19437;DHT22;9854;50.968;4.168;2023-01-19T11:26:14;3.50;99.90
19437;DHT22;9854;50.968;4.168;2023-01-19T11:28:51;3.70;99.90
19437;DHT22;9854;50.968;4.168;2023-01-19T11:31:33;4.00;99.90
19437;DHT22;9854;50.968;4.168;2023-01-19T11:34:04;4.00;99.90
19437;DHT22;9854;50.968;4.168;2023-01-19T11:36:36;4.10;99.90
19437;DHT22;9854;50.968;4.168;2023-01-19T11:41:37;4.30;99.90
19437;DHT22;9854;50.968;4.168;2023-01-19T11:47:01;4.20;99.90
19437;DHT22;9854;50.968;4.168;2023-01-19T11:49:44;4.40;99.90
19437;DHT22;9854;50.968;4.168;2023-01-19T11:52:34;4.40;99.90
19437;DHT22;9854;50.968;4.168;2023-01-19T11:57:38;4.40;99.90
19437;DHT22;9854;50.968;4.168;2023-01-19T12:02:46;4.40;99.90
19437;DHT22;9854;50.968;4.168;2023-01-19T12:05:15;4.40;99.90
19437;DHT22;9854;50.968;4.168;2023-01-19T12:07:44;4.70;99.90
19437;DHT22;9854;50.968;4.168;2023-01-19T12:10:24;4.70;99.90
19437;DHT22;9854;50.968;4.168;2023-01-19T12:12:52;4.30;99.90
19437;DHT22;9854;50.968;4.168;2023-01-19T12:15:44;4.30;99.90
19437;DHT22;9854;50.968;4.168;2023-01-19T12:18:18;4.20;99.90
19437;DHT22;9854;50.968;4.168;2023-01-19T12:20:51;4.30;99.90
19437;DHT22;9854;50.968;4.168;2023-01-19T12:23:39;4.20;99.90
19437;DHT22;9854;50.968;4.168;2023-01-19T12:26:21;4.30;99.90
19437;DHT22;9854;50.968;4.168;2023-01-19T12:28:50;4.40;99.90
19437;DHT22;9854;50.968;4.168;2023-01-19T12:31:19;4.40;99.90
19437;DHT22;9854;50.968;4.168;2023-01-19T12:33:45;4.30;99.90
19437;DHT22;9854;50.968;4.168;2023-01-19T12:39:18;4.30;99.90
19437;DHT22;9854;50.968;4.168;2023-01-19T12:41:44;4.30;99.90
19437;DHT22;9854;50.968;4.168;2023-01-19T12:46:59;4.00;99.90
19437;DHT22;9854;50.968;4.168;2023-01-19T12:54:57;4.00;99.90
19437;DHT22;9854;50.968;4.168;2023-01-19T12:57:34;4.20;99.90
19437;DHT22;9854;50.968;4.168;2023-01-19T13:00:26;4.50;99.90
19437;DHT22;9854;50.968;4.168;2023-01-19T13:03:04;4.50;99.90
19437;DHT22;9854;50.968;4.168;2023-01-19T13:21:26;4.10;99.90
19437;DHT22;9854;50.968;4.168;2023-01-19T13:24:03;4.10;99.90
19437;DHT22;9854;50.968;4.168;2023-01-19T13:26:37;4.10;99.90
19437;DHT22;9854;50.968;4.168;2023-01-19T13:29:34;4.10;99.90
19437;DHT22;9854;50.968;4.168;2023-01-19T13:32:04;4.00;99.90
19437;DHT22;9854;50.968;4.168;2023-01-19T13:34:40;4.30;99.90
19437;DHT22;9854;50.968;4.168;2023-01-19T13:37:15;4.30;99.90
19437;DHT22;9854;50.968;4.168;2023-01-19T13:39:42;4.60;99.90
19437;DHT22;9854;50.968;4.168;2023-01-19T13:44:52;4.20;99.90
19437;DHT22;9854;50.968;4.168;2023-01-19T13:47:24;4.10;99.90
19437;DHT22;9854;50.968;4.168;2023-01-19T13:49:55;4.00;99.90
19437;DHT22;9854;50.968;4.168;2023-01-19T13:55:00;3.90;99.90
19437;DHT22;9854;50.968;4.168;2023-01-19T14:02:37;4.20;99.90
19437;DHT22;9854;50.968;4.168;2023-01-19T14:05:20;4.10;99.90
19437;DHT22;9854;50.968;4.168;2023-01-19T14:07:46;4.30;99.90
19437;DHT22;9854;50.968;4.168;2023-01-19T14:10:14;4.20;99.90
19437;DHT22;9854;50.968;4.168;2023-01-19T14:12:42;4.30;99.90
19437;DHT22;9854;50.968;4.168;2023-01-19T14:15:11;4.40;99.90
19437;DHT22;9854;50.968;4.168;2023-01-19T14:17:40;4.50;99.90
19437;DHT22;9854;50.968;4.168;2023-01-19T14:20:26;4.70;99.90
19437;DHT22;9854;50.968;4.168;2023-01-19T14:22:51;5.00;99.90
19437;DHT22;9854;50.968;4.168;2023-01-19T14:25:31;5.20;99.90
19437;DHT22;9854;50.968;4.168;2023-01-19T14:30:59;5.30;99.90
19437;DHT22;9854;50.968;4.168;2023-01-19T14:38:35;4.80;99.90
19437;DHT22;9854;50.968;4.168;2023-01-19T14:41:01;4.90;99.90
19437;DHT22;9854;50.968;4.168;2023-01-19T14:43:27;5.00;99.90
19437;DHT22;9854;50.968;4.168;2023-01-19T14:45:55;4.70;99.90
19437;DHT22;9854;50.968;4.168;2023-01-19T14:48:20;4.50;99.90
19437;DHT22;9854;50.968;4.168;2023-01-19T14:50:48;4.40;99.90
19437;DHT22;9854;50.968;4.168;2023-01-19T14:53:19;4.50;99.90
19437;DHT22;9854;50.968;4.168;2023-01-19T14:58:19;4.60;99.90
19437;DHT22;9854;50.968;4.168;2023-01-19T15:00:46;4.60;99.90
19437;DHT22;9854;50.968;4.168;2023-01-19T15:03:13;4.50;99.90
19437;DHT22;9854;50.968;4.168;2023-01-19T15:05:40;4.80;99.90
19437;DHT22;9854;50.968;4.168;2023-01-19T15:08:07;4.70;99.90
19437;DHT22;9854;50.968;4.168;2023-01-19T15:10:35;4.60;99.90
19437;DHT22;9854;50.968;4.168;2023-01-19T15:13:01;4.90;99.90
19437;DHT22;9854;50.968;4.168;2023-01-19T15:15:32;5.00;99.90
19437;DHT22;9854;50.968;4.168;2023-01-19T15:17:59;5.00;99.90
19437;DHT22;9854;50.968;4.168;2023-01-19T15:20:25;5.00;99.90
19437;DHT22;9854;50.968;4.168;2023-01-19T15:22:51;4.90;99.90
19437;DHT22;9854;50.968;4.168;2023-01-19T15:25:22;5.00;99.90
19437;DHT22;9854;50.968;4.168;2023-01-19T15:27:50;5.10;99.90
19437;DHT22;9854;50.968;4.168;2023-01-19T15:30:22;4.90;99.90
19437;DHT22;9854;50.968;4.168;2023-01-19T15:32:48;5.00;99.90
19437;DHT22;9854;50.968;4.168;2023-01-19T15:35:17;4.80;99.90
19437;DHT22;9854;50.968;4.168;2023-01-19T15:37:43;4.90;99.90
19437;DHT22;9854;50.968;4.168;2023-01-19T15:40:09;4.70;99.90
19437;DHT22;9854;50.968;4.168;2023-01-19T15:42:35;4.60;99.90
19437;DHT22;9854;50.968;4.168;2023-01-19T15:45:01;4.50;99.90
19437;DHT22;9854;50.968;4.168;2023-01-19T15:47:26;4.20;99.90
19437;DHT22;9854;50.968;4.168;2023-01-19T15:49:52;4.40;99.90
19437;DHT22;9854;50.968;4.168;2023-01-19T15:52:17;4.50;99.90
19437;DHT22;9854;50.968;4.168;2023-01-19T15:54:43;4.50;99.90
19437;DHT22;9854;50.968;4.168;2023-01-19T15:57:09;4.10;99.90
19437;DHT22;9854;50.968;4.168;2023-01-19T15:59:35;4.00;99.90
19437;DHT22;9854;50.968;4.168;2023-01-19T16:02:01;4.00;99.90
19437;DHT22;9854;50.968;4.168;2023-01-19T16:04:27;4.00;99.90
19437;DHT22;9854;50.968;4.168;2023-01-19T16:06:53;4.00;99.90
19437;DHT22;9854;50.968;4.168;2023-01-19T16:09:18;4.00;99.90
19437;DHT22;9854;50.968;4.168;2023-01-19T16:11:45;3.80;99.90
19437;DHT22;9854;50.968;4.168;2023-01-19T16:14:11;3.80;99.90
19437;DHT22;9854;50.968;4.168;2023-01-19T16:16:36;3.80;99.90
19437;DHT22;9854;50.968;4.168;2023-01-19T16:19:02;3.70;99.90
19437;DHT22;9854;50.968;4.168;2023-01-19T16:21:28;3.80;99.90
19437;DHT22;9854;50.968;4.168;2023-01-19T16:23:54;3.70;99.90
19437;DHT22;9854;50.968;4.168;2023-01-19T16:28:57;3.80;99.90
19437;DHT22;9854;50.968;4.168;2023-01-19T16:31:23;3.90;99.90
19437;DHT22;9854;50.968;4.168;2023-01-19T16:33:49;3.70;99.90
19437;DHT22;9854;50.968;4.168;2023-01-19T16:36:23;3.80;99.90
19437;DHT22;9854;50.968;4.168;2023-01-19T16:38:49;3.80;99.90
19437;DHT22;9854;50.968;4.168;2023-01-19T16:41:16;3.70;99.90
19437;DHT22;9854;50.968;4.168;2023-01-19T16:43:41;3.70;99.90
19437;DHT22;9854;50.968;4.168;2023-01-19T16:46:17;3.70;99.90
19437;DHT22;9854;50.968;4.168;2023-01-19T16:48:44;3.50;99.90
19437;DHT22;9854;50.968;4.168;2023-01-19T16:51:09;3.40;99.90
19437;DHT22;9854;50.968;4.168;2023-01-19T16:53:35;3.30;99.90
19437;DHT22;9854;50.968;4.168;2023-01-19T16:56:13;3.30;99.90
19437;DHT22;9854;50.968;4.168;2023-01-19T16:58:40;3.40;99.90
19437;DHT22;9854;50.968;4.168;2023-01-19T17:01:08;3.20;99.90
19437;DHT22;9854;50.968;4.168;2023-01-19T17:03:34;3.10;99.90
19437;DHT22;9854;50.968;4.168;2023-01-19T17:06:00;3.20;99.90
19437;DHT22;9854;50.968;4.168;2023-01-19T17:08:26;3.10;99.90
19437;DHT22;9854;50.968;4.168;2023-01-19T17:10:52;3.10;99.90
19437;DHT22;9854;50.968;4.168;2023-01-19T17:13:18;3.20;99.90
19437;DHT22;9854;50.968;4.168;2023-01-19T17:15:44;3.30;99.90
19437;DHT22;9854;50.968;4.168;2023-01-19T17:18:09;3.40;99.90
19437;DHT22;9854;50.968;4.168;2023-01-19T17:20:35;3.40;99.90
19437;DHT22;9854;50.968;4.168;2023-01-19T17:23:01;3.20;99.90
19437;DHT22;9854;50.968;4.168;2023-01-19T17:25:27;3.30;99.90
19437;DHT22;9854;50.968;4.168;2023-01-19T17:27:52;3.20;99.90
19437;DHT22;9854;50.968;4.168;2023-01-19T17:30:18;3.10;99.90
19437;DHT22;9854;50.968;4.168;2023-01-19T17:32:44;3.10;99.90
19437;DHT22;9854;50.968;4.168;2023-01-19T17:35:10;3.20;99.90
19437;DHT22;9854;50.968;4.168;2023-01-19T17:37:35;3.40;99.90
19437;DHT22;9854;50.968;4.168;2023-01-19T17:40:01;3.30;99.90
19437;DHT22;9854;50.968;4.168;2023-01-19T17:42:27;3.40;99.90